Time,TemperatureF,DewpointF,PressureIn,WindDirection,WindDirectionDegrees,WindSpeedMPH,WindSpeedGustMPH,Humidity,HourlyPrecipIn,Conditions,Clouds,dailyrainin,SoftwareType,DateUTC
2013-10-21 00:10:00,37.9,36.0,30.05,WNW,293,0.0,0.0,94,0.00,,,0.00,weatherlink.com 1.10,2013-10-21 04:10:00,
2013-10-21 00:25:00,37.4,36.0,30.06,WNW,293,0.0,0.0,94,0.00,,,0.00,weatherlink.com 1.10,2013-10-21 04:25:00,
2013-10-21 00:40:00,36.6,35.0,30.06,WNW,293,0.0,0.0,93,0.00,,,0.00,weatherlink.com 1.10,2013-10-21 04:40:00,
2013-10-21 00:55:00,36.6,35.0,30.06,WNW,293,0.0,0.0,94,0.00,,,0.00,weatherlink.com 1.10,2013-10-21 04:55:00,
2013-10-21 01:10:00,36.6,35.0,30.07,WNW,293,0.0,0.0,95,0.00,,,0.00,weatherlink.com 1.10,2013-10-21 05:10:00,
2013-10-21 01:25:00,36.6,35.0,30.07,WNW,293,0.0,0.0,95,0.00,,,0.00,weatherlink.com 1.10,2013-10-21 05:25:00,
2013-10-21 01:40:00,36.4,35.0,30.07,WNW,293,0.0,0.0,94,0.00,,,0.00,weatherlink.com 1.10,2013-10-21 05:40:00,
2013-10-21 01:55:00,36.5,35.0,30.07,WNW,293,0.0,0.0,95,0.00,,,0.00,weatherlink.com 1.10,2013-10-21 05:55:00,
2013-10-21 02:10:00,36.4,35.0,30.08,WNW,293,0.0,0.0,95,0.00,,,0.00,weatherlink.com 1.10,2013-10-21 06:10:00,
2013-10-21 02:25:00,36.2,35.0,30.08,WNW,293,0.0,0.0,95,0.00,,,0.00,weatherlink.com 1.10,2013-10-21 06:25:00,
2013-10-21 02:41:00,36.1,35.0,30.08,WNW,293,0.0,0.0,95,0.00,,,0.00,weatherlink.com 1.10,2013-10-21 06:41:00,
2013-10-21 02:56:00,36.3,35.0,30.09,WNW,293,0.0,0.0,95,0.00,,,0.00,weatherlink.com 1.10,2013-10-21 06:56:00,
2013-10-21 03:10:00,36.2,35.0,30.08,WNW,293,0.0,0.0,95,0.00,,,0.00,weatherlink.com 1.10,2013-10-21 07:10:00,
2013-10-21 03:25:00,35.7,34.0,30.09,WNW,293,0.0,0.0,95,0.00,,,0.00,weatherlink.com 1.10,2013-10-21 07:25:00,
2013-10-21 03:40:00,35.9,35.0,30.09,WNW,293,0.0,0.0,95,0.00,,,0.00,weatherlink.com 1.10,2013-10-21 07:40:00,
2013-10-21 03:56:00,35.5,34.0,30.09,WNW,293,0.0,0.0,95,0.00,,,0.00,weatherlink.com 1.10,2013-10-21 07:56:00,
2013-10-21 04:10:00,35.5,34.0,30.10,WNW,293,0.0,0.0,95,0.00,,,0.00,weatherlink.com 1.10,2013-10-21 08:10:00,
2013-10-21 04:25:00,35.3,34.0,30.10,WNW,293,0.0,0.0,95,0.00,,,0.00,weatherlink.com 1.10,2013-10-21 08:25:00,
2013-10-21 04:40:00,35.1,34.0,30.10,WNW,293,0.0,0.0,95,0.00,,,0.00,weatherlink.com 1.10,2013-10-21 08:40:00,
2013-10-21 04:55:00,35.2,34.0,30.10,WNW,293,0.0,0.0,95,0.00,,,0.00,weatherlink.com 1.10,2013-10-21 08:55:00,
2013-10-21 05:11:00,35.2,34.0,30.11,WNW,293,0.0,0.0,95,0.00,,,0.00,weatherlink.com 1.10,2013-10-21 09:11:00,
2013-10-21 05:26:00,35.0,34.0,30.11,WNW,293,0.0,0.0,95,0.00,,,0.00,weatherlink.com 1.10,2013-10-21 09:26:00,
2013-10-21 05:41:00,34.7,34.0,30.12,WNW,293,0.0,0.0,95,0.00,,,0.00,weatherlink.com 1.10,2013-10-21 09:41:00,
2013-10-21 05:56:00,34.7,34.0,30.11,WNW,293,0.0,0.0,95,0.00,,,0.00,weatherlink.com 1.10,2013-10-21 09:56:00,
2013-10-21 06:10:00,34.5,33.0,30.12,WNW,293,0.0,0.0,95,0.00,,,0.00,weatherlink.com 1.10,2013-10-21 10:10:00,
2013-10-21 06:25:00,34.5,33.0,30.12,WNW,293,0.0,0.0,95,0.00,,,0.00,weatherlink.com 1.10,2013-10-21 10:25:00,
2013-10-21 06:41:00,34.1,33.0,30.12,WNW,293,0.0,1.0,95,0.00,,,0.00,weatherlink.com 1.10,2013-10-21 10:41:00,
2013-10-21 06:56:00,34.1,33.0,30.13,WNW,293,0.0,0.0,96,0.00,,,0.00,weatherlink.com 1.10,2013-10-21 10:56:00,
2013-10-21 07:10:00,34.2,33.0,30.13,WNW,293,0.0,0.0,96,0.00,,,0.00,weatherlink.com 1.10,2013-10-21 11:10:00,
2013-10-21 07:25:00,34.2,33.0,30.14,WNW,293,0.0,0.0,96,0.00,,,0.00,weatherlink.com 1.10,2013-10-21 11:25:00,
2013-10-21 07:40:00,34.4,33.0,30.14,WNW,293,0.0,0.0,96,0.00,,,0.00,weatherlink.com 1.10,2013-10-21 11:40:00,
2013-10-21 07:55:00,35.4,34.0,30.14,WNW,293,0.0,1.0,96,0.00,,,0.00,weatherlink.com 1.10,2013-10-21 11:55:00,
2013-10-21 08:11:00,37.3,36.0,30.14,WNW,293,0.0,1.0,96,0.00,,,0.00,weatherlink.com 1.10,2013-10-21 12:11:00,
2013-10-21 08:26:00,44.8,44.0,30.15,West,267,1.0,7.0,97,0.00,,,0.00,weatherlink.com 1.10,2013-10-21 12:26:00,
2013-10-21 08:41:00,52.2,51.0,30.15,West,259,1.0,5.0,97,0.00,,,0.00,weatherlink.com 1.10,2013-10-21 12:41:00,
2013-10-21 08:57:00,56.5,49.0,30.15,South,191,4.0,8.0,76,0.00,,,0.00,weatherlink.com 1.10,2013-10-21 12:57:00,
2013-10-21 09:12:00,58.9,49.0,30.14,WSW,255,4.0,8.0,71,0.00,,,0.00,weatherlink.com 1.10,2013-10-21 13:12:00,
2013-10-21 09:27:00,60.1,48.0,30.14,West,269,4.0,10.0,65,0.00,,,0.00,weatherlink.com 1.10,2013-10-21 13:27:00,
2013-10-21 09:42:00,60.2,50.0,30.15,NW,321,4.0,11.0,68,0.00,,,0.00,weatherlink.com 1.10,2013-10-21 13:42:00,
2013-10-21 09:57:00,60.7,49.0,30.15,West,274,4.0,7.0,66,0.00,,,0.00,weatherlink.com 1.10,2013-10-21 13:57:00,
2013-10-21 10:11:00,60.9,48.0,30.14,WNW,301,7.0,10.0,63,0.00,,,0.00,weatherlink.com 1.10,2013-10-21 14:11:00,
2013-10-21 10:27:00,61.4,49.0,30.14,SE,141,5.0,11.0,63,0.00,,,0.00,weatherlink.com 1.10,2013-10-21 14:27:00,
2013-10-21 10:42:00,61.8,48.0,30.15,WNW,297,3.0,10.0,62,0.00,,,0.00,weatherlink.com 1.10,2013-10-21 14:42:00,
2013-10-21 10:57:00,61.8,48.0,30.14,NNW,333,10.0,11.0,61,0.00,,,0.00,weatherlink.com 1.10,2013-10-21 14:57:00,
2013-10-21 11:12:00,61.5,48.0,30.14,WSW,240,6.0,12.0,62,0.00,,,0.00,weatherlink.com 1.10,2013-10-21 15:12:00,
2013-10-21 11:27:00,61.8,48.0,30.15,West,272,4.0,9.0,62,0.00,,,0.00,weatherlink.com 1.10,2013-10-21 15:27:00,
2013-10-21 11:42:00,62.4,48.0,30.14,West,274,4.0,11.0,59,0.00,,,0.00,weatherlink.com 1.10,2013-10-21 15:42:00,
2013-10-21 11:57:00,63.0,47.0,30.14,SSW,197,1.0,8.0,57,0.00,,,0.00,weatherlink.com 1.10,2013-10-21 15:57:00,
2013-10-21 12:11:00,63.1,45.0,30.14,WNW,283,5.0,10.0,52,0.00,,,0.00,weatherlink.com 1.10,2013-10-21 16:11:00,
2013-10-21 12:27:00,62.7,46.0,30.13,WNW,288,5.0,13.0,55,0.00,,,0.00,weatherlink.com 1.10,2013-10-21 16:27:00,
2013-10-21 12:42:00,62.9,45.0,30.13,SSE,155,4.0,11.0,52,0.00,,,0.00,weatherlink.com 1.10,2013-10-21 16:42:00,
2013-10-21 12:57:00,62.5,45.0,30.12,West,274,5.0,11.0,53,0.00,,,0.00,weatherlink.com 1.10,2013-10-21 16:57:00,
2013-10-21 13:12:00,62.8,45.0,30.11,West,270,3.0,12.0,53,0.00,,,0.00,weatherlink.com 1.10,2013-10-21 17:12:00,
2013-10-21 13:27:00,63.3,46.0,30.11,West,278,5.0,10.0,53,0.00,,,0.00,weatherlink.com 1.10,2013-10-21 17:27:00,
2013-10-21 13:42:00,63.2,45.0,30.11,South,176,2.0,11.0,52,0.00,,,0.00,weatherlink.com 1.10,2013-10-21 17:42:00,
2013-10-21 13:57:00,63.2,45.0,30.11,WSW,247,9.0,12.0,51,0.00,,,0.00,weatherlink.com 1.10,2013-10-21 17:57:00,
2013-10-21 14:13:00,63.4,45.0,30.10,WSW,256,1.0,15.0,52,0.00,,,0.00,weatherlink.com 1.10,2013-10-21 18:13:00,
2013-10-21 14:28:00,63.1,45.0,30.09,WSW,255,8.0,10.0,52,0.00,,,0.00,weatherlink.com 1.10,2013-10-21 18:28:00,
2013-10-21 14:43:00,62.9,45.0,30.09,WNW,293,7.0,10.0,53,0.00,,,0.00,weatherlink.com 1.10,2013-10-21 18:43:00,
2013-10-21 14:57:00,62.6,46.0,30.09,West,272,6.0,11.0,54,0.00,,,0.00,weatherlink.com 1.10,2013-10-21 18:57:00,
2013-10-21 15:12:00,62.5,47.0,30.09,West,274,0.0,9.0,57,0.00,,,0.00,weatherlink.com 1.10,2013-10-21 19:12:00,
2013-10-21 15:27:00,62.4,46.0,30.09,SSW,205,2.0,10.0,56,0.00,,,0.00,weatherlink.com 1.10,2013-10-21 19:27:00,
2013-10-21 15:42:00,62.1,46.0,30.09,West,262,5.0,11.0,56,0.00,,,0.00,weatherlink.com 1.10,2013-10-21 19:42:00,
2013-10-21 15:58:00,61.8,46.0,30.09,WSW,245,5.0,8.0,56,0.00,,,0.00,weatherlink.com 1.10,2013-10-21 19:58:00,
2013-10-21 16:12:00,62.2,47.0,30.09,WSW,248,5.0,7.0,57,0.00,,,0.00,weatherlink.com 1.10,2013-10-21 20:12:00,
2013-10-21 16:27:00,61.2,47.0,30.09,WNW,290,3.0,7.0,60,0.00,,,0.00,weatherlink.com 1.10,2013-10-21 20:27:00,
2013-10-21 16:42:00,60.7,47.0,30.08,West,264,1.0,5.0,61,0.00,,,0.00,weatherlink.com 1.10,2013-10-21 20:42:00,
2013-10-21 16:57:00,60.7,47.0,30.09,West,269,4.0,8.0,61,0.00,,,0.00,weatherlink.com 1.10,2013-10-21 20:57:00,
2013-10-21 17:12:00,60.6,47.0,30.08,South,190,1.0,3.0,62,0.00,,,0.00,weatherlink.com 1.10,2013-10-21 21:12:00,
2013-10-21 17:27:00,60.0,47.0,30.09,South,175,0.0,2.0,63,0.00,,,0.00,weatherlink.com 1.10,2013-10-21 21:27:00,
2013-10-21 17:42:00,58.3,47.0,30.09,South,177,0.0,1.0,66,0.00,,,0.00,weatherlink.com 1.10,2013-10-21 21:42:00,
2013-10-21 17:57:00,56.0,47.0,30.09,South,177,0.0,1.0,71,0.00,,,0.00,weatherlink.com 1.10,2013-10-21 21:57:00,
2013-10-21 18:13:00,53.4,46.0,30.10,South,177,0.0,1.0,75,0.00,,,0.00,weatherlink.com 1.10,2013-10-21 22:13:00,
2013-10-21 18:28:00,51.3,45.0,30.10,South,177,0.0,0.0,79,0.00,,,0.00,weatherlink.com 1.10,2013-10-21 22:28:00,
2013-10-21 18:43:00,49.5,44.0,30.10,South,177,0.0,0.0,82,0.00,,,0.00,weatherlink.com 1.10,2013-10-21 22:43:00,
2013-10-21 18:58:00,48.0,44.0,30.10,South,177,0.0,0.0,85,0.00,,,0.00,weatherlink.com 1.10,2013-10-21 22:58:00,
2013-10-21 19:27:00,46.1,43.0,30.10,South,177,0.0,0.0,88,0.00,,,0.00,weatherlink.com 1.10,2013-10-21 23:27:00,
2013-10-21 19:42:00,45.6,43.0,30.10,South,177,0.0,0.0,89,0.00,,,0.00,weatherlink.com 1.10,2013-10-21 23:42:00,
2013-10-21 19:58:00,45.1,42.0,30.10,South,177,0.0,0.0,89,0.00,,,0.00,weatherlink.com 1.10,2013-10-21 23:58:00,
2013-10-21 20:12:00,45.0,43.0,30.10,South,177,0.0,0.0,91,0.00,,,0.00,weatherlink.com 1.10,2013-10-22 00:12:00,
2013-10-21 20:27:00,46.7,45.0,30.10,WNW,297,0.0,2.0,92,0.00,,,0.00,weatherlink.com 1.10,2013-10-22 00:27:00,
2013-10-21 20:42:00,47.9,45.0,30.10,WNW,297,0.0,1.0,89,0.00,,,0.00,weatherlink.com 1.10,2013-10-22 00:42:00,
2013-10-21 20:57:00,49.3,45.0,30.10,WNW,296,0.0,1.0,86,0.00,,,0.00,weatherlink.com 1.10,2013-10-22 00:57:00,
2013-10-21 21:13:00,49.8,45.0,30.10,WNW,296,0.0,0.0,84,0.00,,,0.00,weatherlink.com 1.10,2013-10-22 01:13:00,
2013-10-21 21:28:00,50.3,45.0,30.10,WNW,290,0.0,1.0,83,0.00,,,0.00,weatherlink.com 1.10,2013-10-22 01:28:00,
2013-10-21 21:43:00,49.8,45.0,30.09,WNW,290,0.0,1.0,83,0.00,,,0.00,weatherlink.com 1.10,2013-10-22 01:43:00,
2013-10-21 21:58:00,48.9,44.0,30.09,WNW,290,0.0,1.0,84,0.00,,,0.00,weatherlink.com 1.10,2013-10-22 01:58:00,
2013-10-21 22:13:00,47.7,43.0,30.09,WNW,290,0.0,0.0,85,0.00,,,0.00,weatherlink.com 1.10,2013-10-22 02:13:00,
2013-10-21 22:28:00,46.6,43.0,30.08,WNW,290,0.0,0.0,86,0.00,,,0.00,weatherlink.com 1.10,2013-10-22 02:28:00,
2013-10-21 22:43:00,45.5,42.0,30.08,WNW,290,0.0,1.0,87,0.00,,,0.00,weatherlink.com 1.10,2013-10-22 02:43:00,
2013-10-21 22:58:00,44.7,42.0,30.07,WNW,290,0.0,0.0,89,0.00,,,0.00,weatherlink.com 1.10,2013-10-22 02:58:00,
2013-10-21 23:12:00,44.1,41.0,30.07,WNW,290,0.0,1.0,90,0.00,,,0.00,weatherlink.com 1.10,2013-10-22 03:12:00,
2013-10-21 23:28:00,43.7,41.0,30.06,WNW,290,0.0,0.0,91,0.00,,,0.00,weatherlink.com 1.10,2013-10-22 03:28:00,
2013-10-21 23:43:00,43.2,41.0,30.05,WNW,290,0.0,0.0,91,0.00,,,0.00,weatherlink.com 1.10,2013-10-22 03:43:00,
2013-10-21 23:58:00,42.7,40.0,30.05,WNW,290,0.0,0.0,91,0.00,,,0.00,weatherlink.com 1.10,2013-10-22 03:58:00,